• °C
  • Pobieranie danych...
wx


PRINT OUT SECTION, show »

TAF EPBY 271130Z 2712/2812 VRB03KT 8000 BKN007
TEMPO 2712/2716 4000 -SN BR BKN004 OVC011
BECMG 2714/2716 BKN040
BECMG 2716/2718 16006KT 5000 BR
TEMPO 2720/2808 3000 BR BKN005=

TAF EPGD 271130Z 2712/2812 VRB04KT 6000 -SNRA BKN010
TEMPO 2712/2718 3000 SNRA BKN004
PROB40 TEMPO 2712/2716 0600 SN BKN001
PROB40 2718/2724 SCT010 BKN015
TEMPO 2800/2806 2000 BR BKN002
PROB40 2802/2806 0600 FZFG OVC001=

TAF EPKK 271130Z 2712/2812 23010KT 9999 SCT020
BECMG 2712/2715 07005KT
BECMG 2716/2719 4000 -RA BR BKN012
TEMPO 2719/2724 2000 RA BR BKN006
BECMG 2800/2803 BKN005
PROB30 TEMPO 2800/2807 1200 DZ BR BKN003
BECMG 2807/2810 BKN015=

TAF EPKT 271130Z 2712/2812 24010KT CAVOK
BECMG 2714/2716 15006KT
BECMG 2716/2719 BKN014
TEMPO 2719/2724 3500 -RASN BR BKN006
BECMG 2800/2803 BKN008
PROB30 TEMPO 2800/2806 1200 DZ BR BKN003
BECMG 2808/2811 09010KT 6000 BKN012=

TAF EPLB 271130Z 2712/2812 26012KT 9999 BKN018
TEMPO 2712/2714 BKN012
BECMG 2718/2720 18005KT
PROB40 2723/2806 BKN008
BECMG 2806/2809 09010KT 4000 RADZ BR BKN005 OVC012=

TAF AMD EPLL 271413Z 2714/2812 22010KT 7000 BKN004
BECMG 2715/2717 BKN007
BECMG 2717/2719 16005KT SCT012
TEMPO 2722/2724 4000 BR BKN006
BECMG 2800/2802 3000 BR BKN006
TEMPO 2802/2808 1500 BR OVC003
PROB40 2802/2808 0800 FG
BECMG 2808/2810 6000 SCT006 BKN010=

TAF AMD EPMO 271411Z 2714/2812 24011KT 8000 BKN011
TEMPO 2714/2716 BKN008
BECMG 2716/2718 VRB02KT SCT012 BKN016
TEMPO 2720/2809 3000 BR BKN004
BECMG 2809/2811 BKN007=

TAF EPPO 271130Z 2712/2812 15004KT 3500 BR OVC004
BECMG 2712/2714 8000 SCT013
BECMG 2805/2808 3000 BR BKN005=

TAF AMD EPRZ 271400Z 2714/2812 19010KT 9999 BKN020
TEMPO 2714/2721 BKN013
BECMG 2721/2724 -RA BKN014
BECMG 2800/2803 09005KT
TEMPO 2800/2809 2500 -RADZ BR BKN007=

TAF EPSC 271130Z 2712/2812 13010KT 4000 BR BKN004
BECMG 2712/2714 9999 SCT014
BECMG 2716/2718 OVC010
TEMPO 2716/2724 3000 RASN BR BKN004
TEMPO 2800/2807 4000 -RASN BKN005
BECMG 2807/2809 BKN015=

TAF AMD EPWA 271300Z 2713/2812 27010KT 7000 SCT011 BKN020
TEMPO 2713/2715 BKN009
BECMG 2715/2717 VRB02KT
TEMPO 2722/2802 3000 BR BKN006
BECMG 2802/2804 3000 BR BKN004
TEMPO 2802/2809 BKN002
PROB40 2802/2808 1200 BR
BECMG 2810/2812 6000 SCT004 BKN008=

TAF EPWR 271130Z 2712/2812 15010KT CAVOK
BECMG 2804/2806 VRB02KT 3000 BR OVC006
BECMG 2808/2810 1400 SN -SNRA BR OVC002
TEMPO 2808/2812 0400 +SN OVC001
BECMG 2810/2812 02010KT=



IMGW-PIB Sites